Time;durP1;ratioP1;P1;durP2;ratioP2;P2;SDS_P1;SDS_P2;PMS_P1;PMS_P2;Temp;Humidity;BMP_temperature;BMP_pressure;BME280_temperature;BME280_humidity;BME280_pressure;Samples;Min_cycle;Max_cycle;Signal;HPM_P1;HPM_P2
2021/04/27 00:00:22;;;;;;;7.18;4.85;;;6.20;99.90;;;;;;5093921;28;20061;-70
2021/04/27 00:02:47;;;;;;;9.07;4.97;;;6.30;99.90;;;;;;5092480;28;20024;-70
2021/04/27 00:05:16;;;;;;;6.82;4.90;;;6.20;99.90;;;;;;5092853;28;20510;-70
2021/04/27 00:07:42;;;;;;;9.70;5.68;;;6.20;99.90;;;;;;5093555;28;20435;-71
2021/04/27 00:10:10;;;;;;;8.77;4.55;;;6.20;99.90;;;;;;5093531;28;20020;-71
2021/04/27 00:12:36;;;;;;;6.32;4.72;;;6.20;99.90;;;;;;5093284;28;20024;-71
2021/04/27 00:15:05;;;;;;;12.23;5.25;;;6.20;99.90;;;;;;5093811;28;20055;-70
2021/04/27 00:17:30;;;;;;;6.35;4.65;;;6.10;99.90;;;;;;5091974;28;20036;-70
2021/04/27 00:19:56;;;;;;;12.25;5.25;;;6.00;99.90;;;;;;5092296;28;20024;-71
2021/04/27 00:22:22;;;;;;;10.23;5.25;;;6.00;99.90;;;;;;5093682;28;20369;-71
2021/04/27 00:24:47;;;;;;;9.15;4.95;;;5.90;99.90;;;;;;5092420;28;20032;-71
2021/04/27 00:27:13;;;;;;;6.88;4.93;;;6.00;99.90;;;;;;5093633;28;20020;-70
2021/04/27 00:29:38;;;;;;;11.23;4.85;;;5.90;99.90;;;;;;5093395;28;20488;-70
2021/04/27 00:32:04;;;;;;;7.18;4.82;;;5.80;99.90;;;;;;5091781;28;20496;-71
2021/04/27 00:34:30;;;;;;;7.18;4.80;;;5.80;99.90;;;;;;5092460;28;20028;-71
2021/04/27 00:36:55;;;;;;;6.95;4.78;;;5.80;99.90;;;;;;5092904;28;20044;-71
2021/04/27 00:39:21;;;;;;;9.77;4.47;;;5.80;99.90;;;;;;5093286;28;20024;-71
2021/04/27 00:41:47;;;;;;;6.82;5.18;;;5.70;99.90;;;;;;5093231;28;20028;-71
2021/04/27 00:44:13;;;;;;;8.30;4.90;;;5.70;99.90;;;;;;5095138;28;20047;-71
2021/04/27 00:46:39;;;;;;;7.47;5.03;;;5.70;99.90;;;;;;5095912;28;20024;-71
2021/04/27 00:49:04;;;;;;;8.18;5.18;;;5.70;99.90;;;;;;5096107;28;20093;-71
2021/04/27 00:51:32;;;;;;;8.43;4.85;;;5.70;99.90;;;;;;5097071;28;20024;-70
2021/04/27 00:53:57;;;;;;;8.82;4.78;;;5.70;99.90;;;;;;5096718;28;20046;-70
2021/04/27 00:56:23;;;;;;;10.73;4.68;;;5.60;99.90;;;;;;5096906;28;20524;-70
2021/04/27 00:58:49;;;;;;;8.70;4.82;;;5.60;99.90;;;;;;5096927;28;20063;-71
2021/04/27 01:01:14;;;;;;;11.80;4.97;;;5.60;99.90;;;;;;5096361;28;20108;-71
2021/04/27 01:03:40;;;;;;;12.23;5.60;;;5.60;99.90;;;;;;5096583;28;20100;-71
2021/04/27 01:06:08;;;;;;;9.15;4.93;;;5.60;99.90;;;;;;5096759;28;20081;-71
2021/04/27 01:09:03;;;;;;;10.07;4.78;;;5.60;99.90;;;;;;5095474;28;20396;-70
2021/04/27 01:11:53;;;;;;;9.75;4.65;;;5.60;99.90;;;;;;5096314;28;20040;-71
2021/04/27 01:14:40;;;;;;;7.35;4.55;;;5.50;99.90;;;;;;5096063;28;20028;-71
2021/04/27 01:17:09;;;;;;;7.43;4.53;;;5.50;99.90;;;;;;5095916;28;20066;-71
2021/04/27 01:19:40;;;;;;;8.02;5.00;;;5.50;99.90;;;;;;5096504;28;20024;-70
2021/04/27 01:22:09;;;;;;;8.30;4.55;;;5.50;99.90;;;;;;5096277;28;20067;-71
2021/04/27 01:24:44;;;;;;;7.03;4.38;;;5.50;99.90;;;;;;5061300;28;20032;-70
2021/04/27 01:27:11;;;;;;;10.43;5.03;;;5.50;99.90;;;;;;5096135;28;20107;-70
2021/04/27 01:29:38;;;;;;;6.65;4.85;;;5.40;99.90;;;;;;5096138;28;20036;-70
2021/04/27 01:32:05;;;;;;;7.38;4.60;;;5.30;99.90;;;;;;5096276;28;20046;-70
2021/04/27 01:34:35;;;;;;;9.30;4.70;;;5.30;99.90;;;;;;5095706;28;20109;-70
2021/04/27 01:37:04;;;;;;;7.18;4.25;;;5.30;99.90;;;;;;5095491;28;20583;-70
2021/04/27 01:39:31;;;;;;;11.82;5.53;;;5.30;99.90;;;;;;5096200;28;20091;-70
2021/04/27 01:42:00;;;;;;;12.40;5.05;;;5.20;99.90;;;;;;5096171;28;20081;-70
2021/04/27 01:44:28;;;;;;;8.07;4.35;;;5.20;99.90;;;;;;5095809;28;20118;-70
2021/04/27 01:46:54;;;;;;;9.85;4.28;;;5.20;99.90;;;;;;5095500;28;20020;-70
2021/04/27 01:49:19;;;;;;;8.32;4.65;;;5.20;99.90;;;;;;5095993;28;20506;-70
2021/04/27 01:51:46;;;;;;;6.80;4.22;;;5.20;99.90;;;;;;5095687;28;20032;-70
2021/04/27 01:54:11;;;;;;;11.85;4.60;;;5.20;99.90;;;;;;5095342;28;20024;-70
2021/04/27 01:56:37;;;;;;;6.28;4.18;;;5.20;99.90;;;;;;5094617;28;20077;-70
2021/04/27 01:59:05;;;;;;;6.32;4.00;;;5.20;99.90;;;;;;5095758;28;20487;-70
2021/04/27 02:01:30;;;;;;;5.53;3.80;;;5.10;99.90;;;;;;5095458;28;20019;-70
2021/04/27 02:03:56;;;;;;;10.50;4.22;;;5.10;99.90;;;;;;5095149;28;20061;-70
2021/04/27 02:06:21;;;;;;;7.03;4.03;;;5.00;99.90;;;;;;5095337;28;20366;-70
2021/04/27 02:08:51;;;;;;;8.32;3.80;;;5.10;99.90;;;;;;5095030;28;20021;-70
2021/04/27 02:11:17;;;;;;;7.97;4.22;;;5.00;99.90;;;;;;5095009;28;20154;-70
2021/04/27 02:13:43;;;;;;;9.20;4.35;;;5.00;99.90;;;;;;5095179;28;20491;-70
2021/04/27 02:16:09;;;;;;;5.90;4.07;;;5.10;99.90;;;;;;5095382;28;20119;-70
2021/04/27 02:18:43;;;;;;;9.15;3.92;;;5.00;99.90;;;;;;5095135;28;20021;-70
2021/04/27 02:21:09;;;;;;;5.15;4.10;;;5.00;99.90;;;;;;5095378;28;20020;-70
2021/04/27 02:23:36;;;;;;;6.30;3.90;;;5.00;99.90;;;;;;5094995;28;20023;-70
2021/04/27 02:26:03;;;;;;;6.43;3.80;;;4.90;99.90;;;;;;5095249;28;20039;-70
2021/04/27 02:28:29;;;;;;;6.28;3.72;;;4.80;99.90;;;;;;5095198;28;20024;-70
2021/04/27 02:30:58;;;;;;;5.63;3.65;;;4.90;99.90;;;;;;5094647;28;20115;-70
2021/04/27 02:33:24;;;;;;;8.93;3.92;;;4.80;99.90;;;;;;5094893;28;20039;-70
2021/04/27 02:35:50;;;;;;;9.00;3.90;;;4.80;99.90;;;;;;5094419;28;20138;-70
2021/04/27 02:38:23;;;;;;;7.13;4.47;;;4.80;99.90;;;;;;5094455;28;20046;-70
2021/04/27 02:40:52;;;;;;;6.65;3.60;;;4.70;99.90;;;;;;5094722;28;20027;-70
2021/04/27 02:43:18;;;;;;;4.90;3.60;;;4.70;99.90;;;;;;5093503;28;20024;-70
2021/04/27 02:45:44;;;;;;;7.32;3.30;;;4.70;99.90;;;;;;5093921;28;20020;-70
2021/04/27 02:48:14;;;;;;;7.53;3.88;;;4.70;99.90;;;;;;5094821;28;20043;-71
2021/04/27 02:50:44;;;;;;;6.45;3.83;;;4.80;99.90;;;;;;5094894;28;20037;-71
2021/04/27 02:53:12;;;;;;;7.72;3.38;;;4.70;99.90;;;;;;5094965;28;20365;-70
2021/04/27 02:55:39;;;;;;;7.95;3.45;;;4.70;99.90;;;;;;5094894;28;20024;-70
2021/04/27 02:58:04;;;;;;;8.18;3.65;;;4.70;99.90;;;;;;5094517;28;20035;-70
2021/04/27 03:00:31;;;;;;;3.75;3.00;;;4.70;99.90;;;;;;5094221;28;20024;-70
2021/04/27 03:02:56;;;;;;;8.95;3.60;;;4.70;99.90;;;;;;5094349;28;20457;-70
2021/04/27 03:05:22;;;;;;;6.88;3.50;;;4.70;99.90;;;;;;5094560;28;20020;-71
2021/04/27 03:07:49;;;;;;;7.03;3.40;;;4.60;99.90;;;;;;5094166;28;20085;-70
2021/04/27 03:10:15;;;;;;;6.53;4.30;;;4.60;99.90;;;;;;5094238;28;20047;-70
2021/04/27 03:12:41;;;;;;;4.90;3.60;;;4.60;99.90;;;;;;5094520;28;20446;-70
2021/04/27 03:15:08;;;;;;;4.93;3.67;;;4.50;99.90;;;;;;5094468;28;20380;-70
2021/04/27 03:17:34;;;;;;;6.70;3.42;;;4.50;99.90;;;;;;5092888;28;20465;-70
2021/04/27 03:20:00;;;;;;;6.22;3.22;;;4.50;99.90;;;;;;5094127;28;20024;-70
2021/04/27 03:22:26;;;;;;;8.63;3.50;;;4.50;99.90;;;;;;5094362;28;20055;-70
2021/04/27 03:24:51;;;;;;;7.82;3.00;;;4.50;99.90;;;;;;5094318;28;20032;-70
2021/04/27 03:27:17;;;;;;;5.13;3.08;;;4.50;99.90;;;;;;5094305;28;20020;-70
2021/04/27 03:29:43;;;;;;;7.15;3.38;;;4.50;99.90;;;;;;5094297;28;20028;-71
2021/04/27 03:32:09;;;;;;;6.88;3.00;;;4.50;99.90;;;;;;5094025;28;20465;-71
2021/04/27 03:34:35;;;;;;;6.82;2.90;;;4.50;99.90;;;;;;5094253;28;20028;-71
2021/04/27 03:37:01;;;;;;;7.07;2.92;;;4.50;99.90;;;;;;5093529;28;20055;-71
2021/04/27 03:39:26;;;;;;;6.63;3.30;;;4.50;99.90;;;;;;5094164;28;20515;-71
2021/04/27 03:41:52;;;;;;;6.55;3.10;;;4.50;99.90;;;;;;5093877;28;20016;-71
2021/04/27 03:44:17;;;;;;;5.65;3.35;;;4.50;99.90;;;;;;5093876;28;20024;-71
2021/04/27 03:46:43;;;;;;;5.32;2.90;;;4.40;99.90;;;;;;5094094;28;20423;-71
2021/04/27 03:49:09;;;;;;;8.52;3.45;;;4.40;99.90;;;;;;5094057;28;20032;-71
2021/04/27 03:51:34;;;;;;;4.82;3.35;;;4.40;99.90;;;;;;5092782;28;20449;-72
2021/04/27 03:54:00;;;;;;;5.80;2.95;;;4.30;99.90;;;;;;5093493;28;20111;-71
2021/04/27 03:56:25;;;;;;;6.68;2.92;;;4.30;99.90;;;;;;5093917;28;20024;-71
2021/04/27 03:58:52;;;;;;;6.45;3.63;;;4.30;99.90;;;;;;5093467;28;20020;-71
2021/04/27 04:01:18;;;;;;;10.02;3.58;;;4.30;99.90;;;;;;5093704;28;20112;-71
2021/04/27 04:03:43;;;;;;;6.78;3.05;;;4.30;99.90;;;;;;5093666;28;20051;-71
2021/04/27 04:06:09;;;;;;;7.78;3.35;;;4.30;99.90;;;;;;5093655;28;20052;-71
2021/04/27 04:08:35;;;;;;;8.13;2.70;;;4.30;99.90;;;;;;5092735;28;20024;-71
2021/04/27 04:11:01;;;;;;;7.10;3.08;;;4.30;99.90;;;;;;5093334;28;20034;-71
2021/04/27 04:13:27;;;;;;;6.25;3.20;;;4.30;99.90;;;;;;5093276;28;20028;-71
2021/04/27 04:15:52;;;;;;;4.65;2.88;;;4.30;99.90;;;;;;5093777;28;20090;-71
2021/04/27 04:18:19;;;;;;;4.68;3.03;;;4.30;99.90;;;;;;5094383;28;20399;-71
2021/04/27 04:20:45;;;;;;;7.85;3.33;;;4.30;99.90;;;;;;5097158;28;20041;-71
2021/04/27 04:23:11;;;;;;;5.40;2.50;;;4.40;99.90;;;;;;5097406;28;20091;-71
2021/04/27 04:25:36;;;;;;;5.70;2.88;;;4.30;99.90;;;;;;5097361;28;20476;-71
2021/04/27 04:28:02;;;;;;;4.03;2.67;;;4.30;99.90;;;;;;5096148;28;20036;-71
2021/04/27 04:30:28;;;;;;;5.32;2.95;;;4.30;99.90;;;;;;5097271;28;20024;-71
2021/04/27 04:32:53;;;;;;;5.28;2.65;;;4.20;99.90;;;;;;5079274;28;20473;-71
2021/04/27 04:35:21;;;;;;;5.82;3.20;;;4.30;99.90;;;;;;5097175;28;20020;-71
2021/04/27 04:37:47;;;;;;;8.18;3.28;;;4.20;99.90;;;;;;5097051;28;20060;-71
2021/04/27 04:40:14;;;;;;;8.57;3.42;;;4.30;99.90;;;;;;5097305;28;20024;-71
2021/04/27 04:42:41;;;;;;;6.72;3.70;;;4.30;99.90;;;;;;5097046;28;20410;-71
2021/04/27 04:45:09;;;;;;;6.28;3.45;;;4.30;99.90;;;;;;5095832;28;20461;-71
2021/04/27 04:47:35;;;;;;;4.00;2.83;;;4.30;99.90;;;;;;5096673;28;20031;-71
2021/04/27 04:50:01;;;;;;;4.68;2.80;;;4.40;99.90;;;;;;5096857;28;20469;-71
2021/04/27 04:52:27;;;;;;;5.07;3.17;;;4.50;99.90;;;;;;5096139;28;20510;-71
2021/04/27 04:54:53;;;;;;;7.55;3.10;;;4.80;99.90;;;;;;5096790;28;20028;-71
2021/04/27 04:57:19;;;;;;;7.95;3.55;;;4.80;99.90;;;;;;5096702;28;20028;-71
2021/04/27 04:59:45;;;;;;;5.78;2.88;;;5.00;99.90;;;;;;5095506;28;20346;-71
2021/04/27 05:02:10;;;;;;;7.88;2.80;;;5.20;99.90;;;;;;5096949;28;20027;-71
2021/04/27 05:04:37;;;;;;;7.57;2.65;;;5.40;99.90;;;;;;5095134;28;20027;-70
2021/04/27 05:07:06;;;;;;;4.82;2.40;;;5.40;99.90;;;;;;5096592;28;20038;-70
2021/04/27 05:09:32;;;;;;;11.30;3.55;;;5.50;99.90;;;;;;5096809;28;20024;-71
2021/04/27 05:11:58;;;;;;;4.38;2.55;;;5.50;99.90;;;;;;5096735;28;20369;-70
2021/04/27 05:14:24;;;;;;;4.80;2.58;;;5.60;99.90;;;;;;5094870;28;20047;-70
2021/04/27 05:16:50;;;;;;;9.25;2.90;;;5.60;99.90;;;;;;5094786;28;20024;-69
2021/04/27 05:19:16;;;;;;;5.53;2.78;;;5.60;99.90;;;;;;5078320;28;20362;-70
2021/04/27 05:21:43;;;;;;;4.80;2.38;;;5.70;99.90;;;;;;5096325;28;20445;-70
2021/04/27 05:24:09;;;;;;;6.68;2.85;;;5.90;99.90;;;;;;5095965;28;20027;-70
2021/04/27 05:26:35;;;;;;;5.43;2.83;;;6.10;99.90;;;;;;5095937;28;20020;-70
2021/04/27 05:29:01;;;;;;;9.13;2.63;;;6.30;99.90;;;;;;5096065;28;20031;-71
2021/04/27 05:31:26;;;;;;;3.33;2.58;;;6.30;99.90;;;;;;5095792;28;20020;-70
2021/04/27 05:33:52;;;;;;;8.93;2.72;;;6.40;99.90;;;;;;5095094;28;20055;-70
2021/04/27 05:36:17;;;;;;;7.38;2.75;;;6.60;99.90;;;;;;5095727;28;20048;-70
2021/04/27 05:38:43;;;;;;;5.55;2.85;;;7.40;99.90;;;;;;5095959;28;20372;-70
2021/04/27 05:41:09;;;;;;;3.92;2.40;;;8.30;96.30;;;;;;5096188;28;20024;-70
2021/04/27 05:43:34;;;;;;;7.82;2.72;;;9.30;92.70;;;;;;5096155;28;20142;-70
2021/04/27 05:46:00;;;;;;;7.78;3.42;;;10.20;84.40;;;;;;5095805;28;20472;-70
2021/04/27 05:48:25;;;;;;;7.47;3.03;;;10.60;72.50;;;;;;5094817;28;20027;-70
2021/04/27 05:50:51;;;;;;;6.20;2.67;;;10.80;74.00;;;;;;5094703;28;20110;-70
2021/04/27 05:53:17;;;;;;;3.78;2.65;;;11.50;62.70;;;;;;5095587;28;20077;-70
2021/04/27 05:55:42;;;;;;;8.20;3.40;;;11.20;62.60;;;;;;5077076;28;20035;-70
2021/04/27 05:58:09;;;;;;;5.00;2.28;;;11.60;58.80;;;;;;5095552;28;20024;-71
2021/04/27 06:00:36;;;;;;;6.90;2.72;;;11.60;57.20;;;;;;5095163;28;20027;-70
2021/04/27 06:03:01;;;;;;;6.40;2.50;;;12.00;58.40;;;;;;5094488;28;20020;-71
2021/04/27 06:05:27;;;;;;;3.75;2.97;;;12.50;56.40;;;;;;5095383;28;20073;-71
2021/04/27 06:07:52;;;;;;;8.23;2.67;;;13.10;55.10;;;;;;5095596;28;20032;-70
2021/04/27 06:10:18;;;;;;;5.07;2.50;;;12.10;52.60;;;;;;5095561;28;20032;-70
2021/04/27 06:12:43;;;;;;;5.97;2.50;;;12.90;54.80;;;;;;5095285;28;20166;-71
2021/04/27 06:15:09;;;;;;;4.72;2.45;;;13.30;49.90;;;;;;5095232;28;20437;-71
2021/04/27 06:17:36;;;;;;;4.85;2.50;;;13.40;49.70;;;;;;5094217;28;20132;-71
2021/04/27 06:20:06;;;;;;;5.85;2.80;;;12.80;50.10;;;;;;5095458;28;20185;-71
2021/04/27 06:22:31;;;;;;;3.85;2.10;;;13.00;49.70;;;;;;5095313;28;20024;-70
2021/04/27 06:24:57;;;;;;;6.55;2.97;;;13.60;50.70;;;;;;5095013;28;20426;-71
2021/04/27 06:27:24;;;;;;;4.15;2.75;;;14.10;48.80;;;;;;5094678;28;20435;-71
2021/04/27 06:29:50;;;;;;;3.63;2.33;;;14.10;46.50;;;;;;5093831;28;20020;-71
2021/04/27 06:32:16;;;;;;;4.95;3.20;;;13.40;48.10;;;;;;5093581;28;20480;-71
2021/04/27 06:34:41;;;;;;;6.93;2.90;;;13.20;49.10;;;;;;5094799;28;20528;-64
2021/04/27 06:37:07;;;;;;;5.60;2.75;;;13.90;47.70;;;;;;5094305;28;20047;-64
2021/04/27 06:39:33;;;;;;;4.80;2.67;;;13.90;47.30;;;;;;5094699;28;20046;-64
2021/04/27 06:41:58;;;;;;;6.70;3.22;;;13.60;46.00;;;;;;5094204;28;20024;-64
2021/04/27 06:44:24;;;;;;;4.57;2.72;;;13.60;47.50;;;;;;5094646;28;20039;-64
2021/04/27 06:46:49;;;;;;;4.00;2.80;;;14.20;45.90;;;;;;5094639;28;20039;-64
2021/04/27 06:49:15;;;;;;;8.18;2.95;;;14.00;46.60;;;;;;5094786;28;20028;-64
2021/04/27 06:51:40;;;;;;;5.72;3.15;;;15.00;44.40;;;;;;5094784;28;20097;-64
2021/04/27 06:54:06;;;;;;;4.57;2.92;;;14.90;43.20;;;;;;5094123;28;20033;-64
2021/04/27 06:56:32;;;;;;;4.88;2.40;;;14.60;45.00;;;;;;5093059;28;20219;-64
2021/04/27 06:58:58;;;;;;;4.70;2.50;;;14.60;43.60;;;;;;5094670;28;20046;-64
2021/04/27 07:01:23;;;;;;;5.85;2.83;;;14.90;44.60;;;;;;5094334;28;20512;-64
2021/04/27 07:03:49;;;;;;;5.88;2.80;;;14.70;43.50;;;;;;5094646;28;20077;-64
2021/04/27 07:06:15;;;;;;;5.28;2.67;;;14.70;44.30;;;;;;5094504;28;20361;-64
2021/04/27 07:08:42;;;;;;;3.33;2.42;;;14.90;45.00;;;;;;5093109;28;20031;-64
2021/04/27 07:11:09;;;;;;;4.82;2.70;;;14.40;43.50;;;;;;5092988;28;20028;-64
2021/04/27 07:13:35;;;;;;;9.50;3.08;;;14.80;43.60;;;;;;5092922;28;20024;-64
2021/04/27 07:16:01;;;;;;;4.63;2.67;;;14.40;43.30;;;;;;5075742;28;20039;-64
2021/04/27 07:18:27;;;;;;;5.70;2.70;;;14.50;44.30;;;;;;5093749;28;20023;-64
2021/04/27 07:20:52;;;;;;;5.45;2.97;;;14.90;43.00;;;;;;5092797;28;20028;-64
2021/04/27 07:23:18;;;;;;;4.47;2.50;;;14.90;42.70;;;;;;5094292;28;20039;-64
2021/04/27 07:25:44;;;;;;;6.43;2.92;;;14.60;42.10;;;;;;5094263;28;20024;-64
2021/04/27 07:28:09;;;;;;;7.43;2.60;;;14.60;43.10;;;;;;5094238;28;20032;-64
2021/04/27 07:30:36;;;;;;;3.78;2.55;;;14.70;42.60;;;;;;5093934;28;20111;-64
2021/04/27 07:33:04;;;;;;;5.20;2.70;;;14.60;43.00;;;;;;5092744;28;20030;-64
2021/04/27 07:35:30;;;;;;;6.88;3.00;;;14.50;43.60;;;;;;5091083;28;20016;-65
2021/04/27 07:38:00;;;;;;;4.75;3.00;;;15.10;42.90;;;;;;5086522;28;20459;-64
2021/04/27 07:40:26;;;;;;;3.13;2.38;;;14.30;43.20;;;;;;5073358;28;20028;-64
2021/04/27 07:42:52;;;;;;;5.97;2.40;;;15.10;42.60;;;;;;5080618;28;20020;-64
2021/04/27 07:45:17;;;;;;;5.60;2.97;;;15.30;41.40;;;;;;5092583;28;20024;-65
2021/04/27 07:47:43;;;;;;;5.75;3.05;;;15.10;41.20;;;;;;5092080;28;20469;-65
2021/04/27 07:50:10;;;;;;;5.22;2.42;;;16.40;41.50;;;;;;5093755;28;20028;-65
2021/04/27 07:52:38;;;;;;;5.75;2.67;;;15.70;40.60;;;;;;5093539;28;20058;-64
2021/04/27 07:55:06;;;;;;;5.97;2.60;;;15.60;39.40;;;;;;5097818;28;20536;-65
2021/04/27 07:57:32;;;;;;;4.63;2.55;;;15.50;39.80;;;;;;5095687;28;20109;-65
2021/04/27 07:59:57;;;;;;;2.88;2.60;;;15.80;41.10;;;;;;5096754;28;20078;-64
2021/04/27 08:02:23;;;;;;;7.65;3.03;;;15.30;40.70;;;;;;5096175;28;20028;-64
2021/04/27 08:04:49;;;;;;;9.27;2.90;;;15.10;41.30;;;;;;5097745;28;20020;-65
2021/04/27 08:07:14;;;;;;;9.63;2.58;;;16.20;40.90;;;;;;5097864;28;20032;-65
2021/04/27 08:09:40;;;;;;;5.70;2.40;;;17.00;39.20;;;;;;5097598;28;20051;-65
2021/04/27 08:12:06;;;;;;;4.00;2.40;;;16.40;37.90;;;;;;5097640;28;20074;-65
2021/04/27 08:14:32;;;;;;;6.78;2.50;;;16.00;38.50;;;;;;5097845;28;20369;-65
2021/04/27 08:16:58;;;;;;;6.47;2.67;;;16.10;40.00;;;;;;5096296;28;20103;-65
2021/04/27 08:19:24;;;;;;;7.45;3.10;;;15.10;39.70;;;;;;5097705;28;20098;-65
2021/04/27 08:21:49;;;;;;;8.10;2.70;;;15.50;40.20;;;;;;5097404;28;20059;-65
2021/04/27 08:24:15;;;;;;;9.40;2.72;;;15.60;38.70;;;;;;5097675;28;20017;-65
2021/04/27 08:26:40;;;;;;;3.83;2.55;;;15.00;39.80;;;;;;5096375;28;20062;-65
2021/04/27 08:29:06;;;;;;;5.70;2.60;;;15.10;41.20;;;;;;5097493;28;20016;-65
2021/04/27 08:31:32;;;;;;;5.15;2.42;;;15.10;40.20;;;;;;5097497;28;20028;-64
2021/04/27 08:33:59;;;;;;;9.20;3.03;;;15.20;40.80;;;;;;5097093;28;20031;-65
2021/04/27 08:36:24;;;;;;;7.70;2.80;;;15.50;39.60;;;;;;5096912;28;20040;-65
2021/04/27 08:38:50;;;;;;;7.45;2.65;;;15.90;38.70;;;;;;5095846;28;20069;-65
2021/04/27 08:41:16;;;;;;;3.97;2.33;;;16.20;38.70;;;;;;5097182;28;20039;-65
2021/04/27 08:43:42;;;;;;;4.60;2.40;;;15.20;39.40;;;;;;5096972;28;20485;-65
2021/04/27 08:46:08;;;;;;;9.75;2.97;;;15.10;40.00;;;;;;5097177;28;20053;-65
2021/04/27 08:48:34;;;;;;;9.43;2.50;;;16.20;39.30;;;;;;5096828;28;20515;-65
2021/04/27 08:50:59;;;;;;;22.42;4.32;;;16.30;39.50;;;;;;5097053;28;20377;-65
2021/04/27 08:53:25;;;;;;;10.43;2.75;;;17.10;39.70;;;;;;5096745;28;20031;-65
2021/04/27 08:55:50;;;;;;;6.60;2.50;;;16.90;37.30;;;;;;5096681;28;20028;-65
2021/04/27 08:58:17;;;;;;;6.32;2.53;;;16.50;37.00;;;;;;5096979;28;20423;-65
2021/04/27 09:00:44;;;;;;;7.18;2.80;;;17.10;38.60;;;;;;5096831;28;20020;-65
2021/04/27 09:03:11;;;;;;;7.40;2.67;;;16.90;37.90;;;;;;5095187;28;20024;-65
2021/04/27 09:05:40;;;;;;;7.00;2.55;;;16.40;37.00;;;;;;5094209;28;20024;-65
2021/04/27 09:08:05;;;;;;;8.30;2.67;;;16.50;35.70;;;;;;5079167;28;20024;-65
2021/04/27 09:10:33;;;;;;;4.63;2.45;;;16.80;35.40;;;;;;5096476;28;20020;-65
2021/04/27 09:13:09;;;;;;;6.65;2.65;;;16.30;35.80;;;;;;5096696;28;20024;-65
2021/04/27 09:15:41;;;;;;;4.68;2.28;;;16.50;37.40;;;;;;5096600;28;20070;-65
2021/04/27 09:18:39;;;;;;;3.78;2.65;;;17.90;36.10;;;;;;5096016;28;20122;-65
2021/04/27 09:21:07;;;;;;;3.45;2.30;;;17.00;33.60;;;;;;5096544;28;20457;-65
2021/04/27 09:23:35;;;;;;;9.05;2.67;;;17.30;33.70;;;;;;5094758;28;20028;-65
2021/04/27 09:26:10;;;;;;;5.03;2.60;;;17.20;33.40;;;;;;5095919;28;20107;-65
2021/04/27 09:28:38;;;;;;;4.90;2.58;;;17.40;32.90;;;;;;5095683;28;20500;-65
2021/04/27 09:31:26;;;;;;;7.22;3.20;;;17.40;32.50;;;;;;5096386;28;20027;-65
2021/04/27 09:33:53;;;;;;;4.25;2.53;;;18.00;32.40;;;;;;5094603;28;20485;-65
2021/04/27 09:36:21;;;;;;;6.45;2.40;;;17.50;33.20;;;;;;5094653;28;20409;-65
2021/04/27 09:38:50;;;;;;;5.43;2.25;;;16.60;33.90;;;;;;5096181;28;20020;-65
2021/04/27 09:41:16;;;;;;;3.95;2.47;;;16.90;34.50;;;;;;5095766;28;20020;-65
2021/04/27 09:43:45;;;;;;;5.32;2.33;;;17.80;32.80;;;;;;5096175;28;20468;-65
2021/04/27 09:46:14;;;;;;;2.80;2.50;;;17.70;32.50;;;;;;5096088;28;20031;-65
2021/04/27 09:48:46;;;;;;;8.15;2.53;;;17.30;33.30;;;;;;5077350;28;20374;-65
2021/04/27 09:53:56;;;;;;;5.40;3.05;;;17.10;34.10;;;;;;5112220;27;20347;-66
2021/04/27 09:56:46;;;;;;;6.97;2.78;;;18.50;32.40;;;;;;5111874;28;20020;-66
2021/04/27 09:59:14;;;;;;;6.32;2.47;;;18.30;30.90;;;;;;5110350;28;20110;-66
2021/04/27 10:01:45;;;;;;;5.28;2.40;;;18.00;32.00;;;;;;5111252;28;20056;-66
2021/04/27 10:04:11;;;;;;;4.15;2.38;;;18.10;31.60;;;;;;5109952;28;20035;-66
2021/04/27 10:06:41;;;;;;;3.55;2.65;;;18.30;32.70;;;;;;5111692;28;20103;-66
2021/04/27 10:09:08;;;;;;;4.88;2.70;;;18.90;30.80;;;;;;5110100;28;20418;-66
2021/04/27 10:11:35;;;;;;;7.30;2.80;;;19.50;30.80;;;;;;5111545;28;20099;-66
2021/04/27 10:14:03;;;;;;;6.63;2.50;;;18.90;30.40;;;;;;5111580;28;20511;-66
2021/04/27 10:16:29;;;;;;;4.28;2.67;;;18.30;30.10;;;;;;5111465;28;20047;-66
2021/04/27 10:18:55;;;;;;;4.53;2.92;;;18.30;30.10;;;;;;5111447;28;20457;-66
2021/04/27 10:21:21;;;;;;;3.28;2.35;;;18.80;31.30;;;;;;5110869;28;20038;-66
2021/04/27 10:23:50;;;;;;;7.82;2.90;;;19.70;29.50;;;;;;5109540;28;20115;-66
2021/04/27 10:26:21;;;;;;;3.17;2.42;;;19.00;29.50;;;;;;5111194;28;20431;-66
2021/04/27 10:29:07;;;;;;;8.77;3.00;;;18.10;30.60;;;;;;5110974;28;20024;-66
2021/04/27 10:31:36;;;;;;;3.72;2.72;;;18.60;30.70;;;;;;5109577;28;20473;-66
2021/04/27 10:34:14;;;;;;;4.05;2.42;;;18.50;30.00;;;;;;5111087;28;20024;-66
2021/04/27 10:37:02;;;;;;;6.47;2.70;;;18.80;30.60;;;;;;5110578;28;20381;-66
2021/04/27 10:39:47;;;;;;;5.57;2.70;;;18.10;29.70;;;;;;5111054;28;20373;-66
2021/04/27 10:42:19;;;;;;;5.25;2.35;;;17.20;31.60;;;;;;5109851;28;20023;-66
2021/04/27 10:45:02;;;;;;;7.25;2.30;;;16.70;31.90;;;;;;5111289;28;20044;-66
2021/04/27 10:47:37;;;;;;;4.57;2.40;;;16.00;33.30;;;;;;5110849;28;20069;-66
2021/04/27 10:50:03;;;;;;;6.22;3.38;;;15.80;34.60;;;;;;5110835;28;20082;-66
2021/04/27 10:52:32;;;;;;;6.10;2.92;;;15.60;34.60;;;;;;5110111;28;20039;-66
2021/04/27 10:55:33;;;;;;;7.05;2.67;;;15.80;35.30;;;;;;5110809;28;20047;-66
2021/04/27 10:58:01;;;;;;;4.05;2.40;;;15.60;36.40;;;;;;5110796;28;20399;-66
2021/04/27 11:00:43;;;;;;;7.85;2.80;;;15.90;36.80;;;;;;5110677;28;20024;-66
2021/04/27 11:03:17;;;;;;;5.07;2.88;;;16.10;37.10;;;;;;5108723;28;20020;-66
2021/04/27 11:05:56;;;;;;;4.85;2.80;;;15.40;36.20;;;;;;5096492;28;20044;-66
2021/04/27 11:08:22;;;;;;;6.50;2.88;;;15.40;37.80;;;;;;5095473;28;20020;-66
2021/04/27 11:10:50;;;;;;;3.55;2.53;;;15.70;37.20;;;;;;5096340;28;20382;-66
2021/04/27 11:13:15;;;;;;;6.53;3.40;;;15.30;38.00;;;;;;5095640;28;20368;-66
2021/04/27 11:15:44;;;;;;;3.10;2.50;;;15.30;37.60;;;;;;5078722;28;20111;-66
2021/04/27 11:18:16;;;;;;;10.98;3.00;;;15.10;37.00;;;;;;5096720;28;20374;-66
2021/04/27 11:21:09;;;;;;;6.00;2.88;;;15.00;38.50;;;;;;5096682;28;20024;-66
2021/04/27 11:26:37;;;;;;;7.50;2.83;;;14.80;37.30;;;;;;5112164;27;20396;-66
2021/04/27 11:29:13;;;;;;;3.80;2.58;;;14.80;36.60;;;;;;5111228;28;20047;-66
2021/04/27 11:32:01;;;;;;;4.30;2.97;;;14.80;38.10;;;;;;5111805;28;20044;-66
2021/04/27 11:34:28;;;;;;;2.75;2.45;;;14.80;39.70;;;;;;5111233;28;20107;-66
2021/04/27 11:36:54;;;;;;;3.45;2.65;;;14.80;37.00;;;;;;5111443;28;20032;-66
2021/04/27 11:39:23;;;;;;;5.75;2.80;;;14.60;37.80;;;;;;5111633;28;20024;-66
2021/04/27 11:41:52;;;;;;;5.25;2.70;;;14.50;37.30;;;;;;5109779;28;20097;-66
2021/04/27 11:44:20;;;;;;;6.97;3.33;;;14.70;39.00;;;;;;5111206;28;20170;-66
2021/04/27 11:47:04;;;;;;;8.63;3.45;;;14.20;38.90;;;;;;5111013;28;20016;-66
2021/04/27 11:49:55;;;;;;;7.68;2.78;;;14.00;39.80;;;;;;5111520;28;20033;-65
2021/04/27 11:52:45;;;;;;;6.68;4.35;;;14.70;39.00;;;;;;5111141;28;20047;-65
2021/04/27 11:55:20;;;;;;;7.03;3.50;;;14.80;39.00;;;;;;5111247;28;20059;-66
2021/04/27 11:57:49;;;;;;;5.50;3.10;;;15.10;39.80;;;;;;5111334;28;20028;-66
2021/04/27 12:00:15;;;;;;;6.22;3.05;;;14.80;40.20;;;;;;5111252;28;20016;-65
2021/04/27 12:02:41;;;;;;;3.67;2.65;;;14.80;40.20;;;;;;5111214;28;20031;-66
2021/04/27 12:05:07;;;;;;;5.88;2.90;;;15.00;38.80;;;;;;5111142;28;20034;-65
2021/04/27 12:07:32;;;;;;;4.70;3.10;;;15.20;39.60;;;;;;5111163;28;20095;-66
2021/04/27 12:09:59;;;;;;;6.65;3.15;;;15.40;39.00;;;;;;5111118;28;20460;-66
2021/04/27 12:12:26;;;;;;;5.32;3.17;;;15.40;37.20;;;;;;5109825;28;20016;-66
2021/04/27 12:14:54;;;;;;;6.70;4.60;;;15.10;37.30;;;;;;5110934;28;20031;-66
2021/04/27 12:17:29;;;;;;;3.92;2.25;;;15.20;37.00;;;;;;5110955;28;20400;-66
2021/04/27 12:20:17;;;;;;;5.63;2.90;;;15.00;37.00;;;;;;5110404;28;20023;-66
2021/04/27 12:22:51;;;;;;;4.85;2.92;;;15.60;38.40;;;;;;5109009;28;20076;-65
2021/04/27 12:25:20;;;;;;;6.45;3.13;;;14.80;37.90;;;;;;5110250;28;20076;-66
2021/04/27 12:27:47;;;;;;;6.35;2.72;;;14.80;37.20;;;;;;5110509;28;20012;-65
2021/04/27 12:30:16;;;;;;;8.15;4.53;;;15.20;38.50;;;;;;5110756;28;20016;-66
2021/04/27 12:32:48;;;;;;;4.97;3.03;;;14.50;36.90;;;;;;5110567;28;20016;-66
2021/04/27 12:35:23;;;;;;;5.50;2.40;;;14.90;37.50;;;;;;5110668;28;20024;-65
2021/04/27 12:38:00;;;;;;;2.95;2.50;;;15.10;38.70;;;;;;5095050;28;20029;-66
2021/04/27 12:40:28;;;;;;;4.50;2.80;;;15.50;39.90;;;;;;5095840;28;20023;-65
2021/04/27 12:43:01;;;;;;;8.52;3.03;;;15.40;37.20;;;;;;5096388;28;20020;-66
2021/04/27 12:45:29;;;;;;;5.80;3.10;;;15.60;36.90;;;;;;5096479;28;20075;-66
2021/04/27 12:48:05;;;;;;;6.00;2.60;;;15.20;38.50;;;;;;5096783;28;20016;-66
2021/04/27 12:50:31;;;;;;;3.97;2.70;;;15.10;37.80;;;;;;5094906;28;20120;-65
2021/04/27 12:53:00;;;;;;;4.50;2.67;;;15.30;36.80;;;;;;5096337;28;20461;-65
2021/04/27 12:55:30;;;;;;;8.02;3.05;;;15.30;35.60;;;;;;5095507;28;20028;-66
2021/04/27 12:58:08;;;;;;;5.60;3.00;;;15.40;37.60;;;;;;5096303;28;20379;-66
2021/04/27 13:00:48;;;;;;;8.15;3.38;;;15.20;36.80;;;;;;5096614;28;20028;-65